sensor_id;sensor_type;location;lat;lon;timestamp;P1;durP1;ratioP1;P2;durP2;ratioP2
23060;SDS011;11698;47.690;9.132;2023-03-31T00:02:18;5.45;;;2.60;;
23060;SDS011;11698;47.690;9.132;2023-03-31T00:04:46;7.23;;;2.77;;
23060;SDS011;11698;47.690;9.132;2023-03-31T00:07:17;4.50;;;2.58;;
23060;SDS011;11698;47.690;9.132;2023-03-31T00:09:46;4.20;;;2.70;;
23060;SDS011;11698;47.690;9.132;2023-03-31T00:12:16;6.55;;;2.40;;
23060;SDS011;11698;47.690;9.132;2023-03-31T00:14:42;5.85;;;2.40;;
23060;SDS011;11698;47.690;9.132;2023-03-31T00:17:09;5.93;;;2.78;;
23060;SDS011;11698;47.690;9.132;2023-03-31T00:19:35;6.68;;;2.53;;
23060;SDS011;11698;47.690;9.132;2023-03-31T00:22:01;5.53;;;2.60;;
23060;SDS011;11698;47.690;9.132;2023-03-31T00:24:29;7.28;;;2.90;;
23060;SDS011;11698;47.690;9.132;2023-03-31T00:26:59;5.40;;;2.28;;
23060;SDS011;11698;47.690;9.132;2023-03-31T00:29:26;5.35;;;2.80;;
23060;SDS011;11698;47.690;9.132;2023-03-31T00:31:52;5.85;;;2.83;;
23060;SDS011;11698;47.690;9.132;2023-03-31T00:34:19;3.92;;;2.45;;
23060;SDS011;11698;47.690;9.132;2023-03-31T00:36:45;6.20;;;2.50;;
23060;SDS011;11698;47.690;9.132;2023-03-31T00:39:14;4.97;;;2.60;;
23060;SDS011;11698;47.690;9.132;2023-03-31T00:41:41;4.97;;;2.30;;
23060;SDS011;11698;47.690;9.132;2023-03-31T00:45:06;4.78;;;2.60;;
23060;SDS011;11698;47.690;9.132;2023-03-31T00:47:14;5.70;;;2.70;;
23060;SDS011;11698;47.690;9.132;2023-03-31T00:49:43;5.07;;;2.27;;
23060;SDS011;11698;47.690;9.132;2023-03-31T00:52:32;3.40;;;2.50;;
23060;SDS011;11698;47.690;9.132;2023-03-31T00:55:00;7.32;;;2.67;;
23060;SDS011;11698;47.690;9.132;2023-03-31T00:57:29;4.25;;;2.28;;
23060;SDS011;11698;47.690;9.132;2023-03-31T00:59:57;8.23;;;2.47;;
23060;SDS011;11698;47.690;9.132;2023-03-31T01:02:24;7.10;;;2.88;;
23060;SDS011;11698;47.690;9.132;2023-03-31T01:04:51;6.78;;;2.53;;
23060;SDS011;11698;47.690;9.132;2023-03-31T01:07:21;5.35;;;2.65;;
23060;SDS011;11698;47.690;9.132;2023-03-31T01:09:49;3.67;;;1.97;;
23060;SDS011;11698;47.690;9.132;2023-03-31T01:12:18;6.95;;;2.63;;
23060;SDS011;11698;47.690;9.132;2023-03-31T01:14:45;5.57;;;2.30;;
23060;SDS011;11698;47.690;9.132;2023-03-31T01:17:11;5.57;;;2.65;;
23060;SDS011;11698;47.690;9.132;2023-03-31T01:19:51;4.18;;;2.33;;
23060;SDS011;11698;47.690;9.132;2023-03-31T01:24:57;3.42;;;2.45;;
23060;SDS011;11698;47.690;9.132;2023-03-31T01:30:10;5.63;;;2.60;;
23060;SDS011;11698;47.690;9.132;2023-03-31T01:40:39;5.87;;;2.47;;
23060;SDS011;11698;47.690;9.132;2023-03-31T01:49:31;4.50;;;2.63;;
23060;SDS011;11698;47.690;9.132;2023-03-31T01:56:45;6.32;;;2.58;;
23060;SDS011;11698;47.690;9.132;2023-03-31T02:06:39;5.30;;;2.55;;
23060;SDS011;11698;47.690;9.132;2023-03-31T02:09:08;3.92;;;2.60;;
23060;SDS011;11698;47.690;9.132;2023-03-31T02:11:34;5.25;;;2.60;;
23060;SDS011;11698;47.690;9.132;2023-03-31T02:14:02;5.15;;;2.60;;
23060;SDS011;11698;47.690;9.132;2023-03-31T02:16:31;3.47;;;2.53;;
23060;SDS011;11698;47.690;9.132;2023-03-31T02:19:00;5.07;;;2.50;;
23060;SDS011;11698;47.690;9.132;2023-03-31T02:21:32;4.57;;;2.57;;
23060;SDS011;11698;47.690;9.132;2023-03-31T02:23:59;4.80;;;2.70;;
23060;SDS011;11698;47.690;9.132;2023-03-31T02:26:28;4.88;;;2.58;;
23060;SDS011;11698;47.690;9.132;2023-03-31T02:28:55;4.30;;;2.10;;
23060;SDS011;11698;47.690;9.132;2023-03-31T02:34:05;4.15;;;2.50;;
23060;SDS011;11698;47.690;9.132;2023-03-31T02:36:32;4.43;;;2.53;;
23060;SDS011;11698;47.690;9.132;2023-03-31T02:39:03;4.17;;;2.60;;
23060;SDS011;11698;47.690;9.132;2023-03-31T02:41:31;3.75;;;2.40;;
23060;SDS011;11698;47.690;9.132;2023-03-31T02:43:57;6.07;;;3.00;;
23060;SDS011;11698;47.690;9.132;2023-03-31T02:46:23;5.30;;;3.00;;
23060;SDS011;11698;47.690;9.132;2023-03-31T02:48:50;8.57;;;4.53;;
23060;SDS011;11698;47.690;9.132;2023-03-31T03:06:36;5.47;;;2.67;;
23060;SDS011;11698;47.690;9.132;2023-03-31T03:14:19;4.22;;;3.10;;
23060;SDS011;11698;47.690;9.132;2023-03-31T03:16:58;5.07;;;2.72;;
23060;SDS011;11698;47.690;9.132;2023-03-31T03:19:26;5.80;;;2.83;;
23060;SDS011;11698;47.690;9.132;2023-03-31T03:21:52;7.25;;;3.10;;
23060;SDS011;11698;47.690;9.132;2023-03-31T03:24:18;7.70;;;3.03;;
23060;SDS011;11698;47.690;9.132;2023-03-31T03:26:46;4.50;;;2.77;;
23060;SDS011;11698;47.690;9.132;2023-03-31T03:29:12;5.43;;;2.93;;
23060;SDS011;11698;47.690;9.132;2023-03-31T03:31:39;5.53;;;2.75;;
23060;SDS011;11698;47.690;9.132;2023-03-31T03:34:05;5.57;;;2.90;;
23060;SDS011;11698;47.690;9.132;2023-03-31T03:36:31;5.38;;;3.10;;
23060;SDS011;11698;47.690;9.132;2023-03-31T03:38:57;4.65;;;3.10;;
23060;SDS011;11698;47.690;9.132;2023-03-31T03:41:24;5.75;;;2.88;;
23060;SDS011;11698;47.690;9.132;2023-03-31T03:43:50;7.05;;;2.78;;
23060;SDS011;11698;47.690;9.132;2023-03-31T03:46:16;5.97;;;3.22;;
23060;SDS011;11698;47.690;9.132;2023-03-31T03:48:42;6.80;;;3.00;;
23060;SDS011;11698;47.690;9.132;2023-03-31T03:51:08;7.22;;;3.00;;
23060;SDS011;11698;47.690;9.132;2023-03-31T03:53:34;5.88;;;3.13;;
23060;SDS011;11698;47.690;9.132;2023-03-31T03:56:00;8.15;;;3.00;;
23060;SDS011;11698;47.690;9.132;2023-03-31T03:58:26;5.28;;;3.03;;
23060;SDS011;11698;47.690;9.132;2023-03-31T04:00:52;5.45;;;3.10;;
23060;SDS011;11698;47.690;9.132;2023-03-31T04:03:18;5.40;;;3.03;;
23060;SDS011;11698;47.690;9.132;2023-03-31T04:05:46;7.07;;;3.35;;
23060;SDS011;11698;47.690;9.132;2023-03-31T04:08:13;6.20;;;3.50;;
23060;SDS011;11698;47.690;9.132;2023-03-31T04:10:46;4.20;;;3.45;;
23060;SDS011;11698;47.690;9.132;2023-03-31T04:13:16;6.85;;;3.10;;
23060;SDS011;11698;47.690;9.132;2023-03-31T04:15:43;6.07;;;3.23;;
23060;SDS011;11698;47.690;9.132;2023-03-31T04:18:09;5.53;;;2.70;;
23060;SDS011;11698;47.690;9.132;2023-03-31T04:20:42;4.32;;;2.50;;
23060;SDS011;11698;47.690;9.132;2023-03-31T04:23:09;6.60;;;3.13;;
23060;SDS011;11698;47.690;9.132;2023-03-31T04:25:35;7.50;;;2.97;;
23060;SDS011;11698;47.690;9.132;2023-03-31T04:28:02;7.47;;;2.92;;
23060;SDS011;11698;47.690;9.132;2023-03-31T04:30:31;5.28;;;3.00;;
23060;SDS011;11698;47.690;9.132;2023-03-31T04:32:58;5.07;;;2.80;;
23060;SDS011;11698;47.690;9.132;2023-03-31T04:35:25;6.47;;;2.80;;
23060;SDS011;11698;47.690;9.132;2023-03-31T04:37:52;7.18;;;3.50;;
23060;SDS011;11698;47.690;9.132;2023-03-31T04:40:24;7.90;;;3.30;;
23060;SDS011;11698;47.690;9.132;2023-03-31T04:42:50;6.80;;;3.10;;
23060;SDS011;11698;47.690;9.132;2023-03-31T04:45:16;7.55;;;3.20;;
23060;SDS011;11698;47.690;9.132;2023-03-31T04:47:42;5.97;;;3.27;;
23060;SDS011;11698;47.690;9.132;2023-03-31T04:50:08;7.22;;;3.40;;
23060;SDS011;11698;47.690;9.132;2023-03-31T04:52:35;5.05;;;3.00;;
23060;SDS011;11698;47.690;9.132;2023-03-31T04:55:02;5.72;;;2.95;;
23060;SDS011;11698;47.690;9.132;2023-03-31T04:57:28;5.63;;;2.90;;
23060;SDS011;11698;47.690;9.132;2023-03-31T04:59:54;5.68;;;3.30;;
23060;SDS011;11698;47.690;9.132;2023-03-31T05:02:20;6.90;;;3.30;;
23060;SDS011;11698;47.690;9.132;2023-03-31T05:04:49;4.07;;;3.00;;
23060;SDS011;11698;47.690;9.132;2023-03-31T05:07:16;4.95;;;3.35;;
23060;SDS011;11698;47.690;9.132;2023-03-31T05:09:43;6.50;;;3.08;;
23060;SDS011;11698;47.690;9.132;2023-03-31T05:12:09;6.32;;;3.40;;
23060;SDS011;11698;47.690;9.132;2023-03-31T05:14:35;5.57;;;3.15;;
23060;SDS011;11698;47.690;9.132;2023-03-31T05:17:01;6.18;;;3.35;;
23060;SDS011;11698;47.690;9.132;2023-03-31T05:19:27;4.63;;;2.92;;
23060;SDS011;11698;47.690;9.132;2023-03-31T05:21:53;7.03;;;3.33;;
23060;SDS011;11698;47.690;9.132;2023-03-31T05:24:19;7.78;;;3.08;;
23060;SDS011;11698;47.690;9.132;2023-03-31T05:26:45;4.95;;;2.80;;
23060;SDS011;11698;47.690;9.132;2023-03-31T05:29:16;5.78;;;3.00;;
23060;SDS011;11698;47.690;9.132;2023-03-31T05:31:42;7.05;;;3.40;;
23060;SDS011;11698;47.690;9.132;2023-03-31T05:34:08;6.25;;;3.00;;
23060;SDS011;11698;47.690;9.132;2023-03-31T05:36:34;5.78;;;3.20;;
23060;SDS011;11698;47.690;9.132;2023-03-31T05:39:01;7.30;;;3.00;;
23060;SDS011;11698;47.690;9.132;2023-03-31T05:41:27;4.28;;;2.90;;
23060;SDS011;11698;47.690;9.132;2023-03-31T05:43:53;6.90;;;2.90;;
23060;SDS011;11698;47.690;9.132;2023-03-31T05:46:19;7.32;;;3.30;;
23060;SDS011;11698;47.690;9.132;2023-03-31T05:48:45;7.87;;;3.20;;
23060;SDS011;11698;47.690;9.132;2023-03-31T05:51:11;7.65;;;3.63;;
23060;SDS011;11698;47.690;9.132;2023-03-31T05:53:37;4.90;;;2.78;;
23060;SDS011;11698;47.690;9.132;2023-03-31T05:56:04;5.53;;;2.58;;
23060;SDS011;11698;47.690;9.132;2023-03-31T05:58:34;4.63;;;2.55;;
23060;SDS011;11698;47.690;9.132;2023-03-31T06:01:04;6.17;;;2.60;;
23060;SDS011;11698;47.690;9.132;2023-03-31T06:03:34;5.38;;;3.15;;
23060;SDS011;11698;47.690;9.132;2023-03-31T06:06:00;6.80;;;3.20;;
23060;SDS011;11698;47.690;9.132;2023-03-31T06:08:27;8.88;;;3.00;;
23060;SDS011;11698;47.690;9.132;2023-03-31T06:10:53;7.22;;;4.40;;
23060;SDS011;11698;47.690;9.132;2023-03-31T06:13:19;9.38;;;4.32;;
23060;SDS011;11698;47.690;9.132;2023-03-31T06:15:56;7.30;;;4.20;;
23060;SDS011;11698;47.690;9.132;2023-03-31T06:18:22;7.55;;;3.78;;
23060;SDS011;11698;47.690;9.132;2023-03-31T06:20:48;5.95;;;3.67;;
23060;SDS011;11698;47.690;9.132;2023-03-31T06:23:15;7.00;;;3.72;;
23060;SDS011;11698;47.690;9.132;2023-03-31T06:25:41;6.80;;;3.60;;
23060;SDS011;11698;47.690;9.132;2023-03-31T06:28:07;6.50;;;3.30;;
23060;SDS011;11698;47.690;9.132;2023-03-31T06:30:33;8.40;;;3.88;;
23060;SDS011;11698;47.690;9.132;2023-03-31T06:33:00;6.60;;;3.60;;
23060;SDS011;11698;47.690;9.132;2023-03-31T06:35:26;7.60;;;4.17;;
23060;SDS011;11698;47.690;9.132;2023-03-31T06:37:52;5.60;;;4.07;;
23060;SDS011;11698;47.690;9.132;2023-03-31T06:40:18;9.10;;;4.38;;
23060;SDS011;11698;47.690;9.132;2023-03-31T06:42:44;9.15;;;4.75;;
23060;SDS011;11698;47.690;9.132;2023-03-31T06:45:10;6.63;;;3.72;;
23060;SDS011;11698;47.690;9.132;2023-03-31T06:47:36;10.63;;;4.27;;
23060;SDS011;11698;47.690;9.132;2023-03-31T06:50:05;8.53;;;4.20;;
23060;SDS011;11698;47.690;9.132;2023-03-31T06:52:31;6.63;;;3.55;;
23060;SDS011;11698;47.690;9.132;2023-03-31T06:54:57;6.88;;;3.78;;
23060;SDS011;11698;47.690;9.132;2023-03-31T06:57:24;6.50;;;3.75;;
23060;SDS011;11698;47.690;9.132;2023-03-31T06:59:50;4.40;;;2.80;;
23060;SDS011;11698;47.690;9.132;2023-03-31T07:02:16;1.45;;;1.35;;
23060;SDS011;11698;47.690;9.132;2023-03-31T07:04:42;6.25;;;2.10;;
23060;SDS011;11698;47.690;9.132;2023-03-31T07:07:08;5.23;;;2.13;;
23060;SDS011;11698;47.690;9.132;2023-03-31T07:09:35;4.00;;;2.17;;
23060;SDS011;11698;47.690;9.132;2023-03-31T07:12:01;4.27;;;2.23;;
23060;SDS011;11698;47.690;9.132;2023-03-31T07:14:29;9.32;;;2.35;;
23060;SDS011;11698;47.690;9.132;2023-03-31T07:16:55;3.47;;;2.20;;
23060;SDS011;11698;47.690;9.132;2023-03-31T07:19:21;3.75;;;2.10;;
23060;SDS011;11698;47.690;9.132;2023-03-31T07:21:47;4.38;;;2.50;;
23060;SDS011;11698;47.690;9.132;2023-03-31T07:24:13;4.00;;;2.03;;
23060;SDS011;11698;47.690;9.132;2023-03-31T07:26:39;3.42;;;1.85;;
23060;SDS011;11698;47.690;9.132;2023-03-31T07:29:05;4.07;;;1.90;;
23060;SDS011;11698;47.690;9.132;2023-03-31T07:31:31;2.35;;;1.65;;
23060;SDS011;11698;47.690;9.132;2023-03-31T07:33:57;2.37;;;1.60;;
23060;SDS011;11698;47.690;9.132;2023-03-31T07:36:23;2.83;;;1.60;;
23060;SDS011;11698;47.690;9.132;2023-03-31T07:38:50;1.80;;;1.50;;
23060;SDS011;11698;47.690;9.132;2023-03-31T07:41:16;2.90;;;1.70;;
23060;SDS011;11698;47.690;9.132;2023-03-31T07:43:43;3.97;;;2.00;;
23060;SDS011;11698;47.690;9.132;2023-03-31T07:46:19;3.05;;;1.77;;
23060;SDS011;11698;47.690;9.132;2023-03-31T07:48:46;2.75;;;1.60;;
23060;SDS011;11698;47.690;9.132;2023-03-31T07:51:16;3.88;;;2.10;;
23060;SDS011;11698;47.690;9.132;2023-03-31T07:53:43;2.73;;;1.70;;
23060;SDS011;11698;47.690;9.132;2023-03-31T07:56:10;4.28;;;2.00;;
23060;SDS011;11698;47.690;9.132;2023-03-31T07:58:36;2.78;;;1.98;;
23060;SDS011;11698;47.690;9.132;2023-03-31T08:01:02;3.58;;;1.95;;
23060;SDS011;11698;47.690;9.132;2023-03-31T08:03:28;2.53;;;1.20;;
23060;SDS011;11698;47.690;9.132;2023-03-31T08:05:56;6.38;;;1.60;;
23060;SDS011;11698;47.690;9.132;2023-03-31T08:08:22;6.03;;;2.13;;
23060;SDS011;11698;47.690;9.132;2023-03-31T08:10:48;3.70;;;1.67;;
23060;SDS011;11698;47.690;9.132;2023-03-31T08:13:14;3.57;;;1.70;;
23060;SDS011;11698;47.690;9.132;2023-03-31T08:15:40;3.20;;;1.80;;
23060;SDS011;11698;47.690;9.132;2023-03-31T08:18:06;4.40;;;1.63;;
23060;SDS011;11698;47.690;9.132;2023-03-31T08:20:32;3.50;;;1.30;;
23060;SDS011;11698;47.690;9.132;2023-03-31T08:22:58;3.53;;;1.50;;
23060;SDS011;11698;47.690;9.132;2023-03-31T08:25:24;3.72;;;1.30;;
23060;SDS011;11698;47.690;9.132;2023-03-31T08:27:50;5.03;;;1.80;;
23060;SDS011;11698;47.690;9.132;2023-03-31T08:30:17;2.83;;;1.13;;
23060;SDS011;11698;47.690;9.132;2023-03-31T08:32:43;1.50;;;1.20;;
23060;SDS011;11698;47.690;9.132;2023-03-31T08:35:10;2.80;;;1.33;;
23060;SDS011;11698;47.690;9.132;2023-03-31T08:37:36;2.20;;;0.88;;
23060;SDS011;11698;47.690;9.132;2023-03-31T08:40:06;1.40;;;1.20;;
23060;SDS011;11698;47.690;9.132;2023-03-31T08:47:35;2.57;;;1.00;;
23060;SDS011;11698;47.690;9.132;2023-03-31T08:50:03;3.10;;;1.10;;
23060;SDS011;11698;47.690;9.132;2023-03-31T08:52:33;2.40;;;1.00;;
23060;SDS011;11698;47.690;9.132;2023-03-31T08:55:02;2.50;;;1.48;;
23060;SDS011;11698;47.690;9.132;2023-03-31T09:00:17;2.75;;;1.20;;
23060;SDS011;11698;47.690;9.132;2023-03-31T09:15:42;1.37;;;0.77;;
23060;SDS011;11698;47.690;9.132;2023-03-31T09:20:57;3.58;;;1.48;;
23060;SDS011;11698;47.690;9.132;2023-03-31T09:23:29;3.08;;;1.10;;
23060;SDS011;11698;47.690;9.132;2023-03-31T09:25:57;2.30;;;0.90;;
23060;SDS011;11698;47.690;9.132;2023-03-31T09:28:33;1.63;;;0.65;;
23060;SDS011;11698;47.690;9.132;2023-03-31T09:31:01;2.25;;;0.75;;
23060;SDS011;11698;47.690;9.132;2023-03-31T09:33:29;3.75;;;1.10;;
23060;SDS011;11698;47.690;9.132;2023-03-31T09:36:01;2.55;;;1.00;;
23060;SDS011;11698;47.690;9.132;2023-03-31T09:38:27;2.75;;;0.98;;
23060;SDS011;11698;47.690;9.132;2023-03-31T09:40:56;5.35;;;1.30;;
23060;SDS011;11698;47.690;9.132;2023-03-31T09:43:23;3.53;;;0.70;;
23060;SDS011;11698;47.690;9.132;2023-03-31T09:45:49;1.77;;;0.75;;
23060;SDS011;11698;47.690;9.132;2023-03-31T09:48:17;1.60;;;0.70;;
23060;SDS011;11698;47.690;9.132;2023-03-31T09:50:45;5.00;;;1.60;;
23060;SDS011;11698;47.690;9.132;2023-03-31T09:53:28;3.08;;;1.17;;
23060;SDS011;11698;47.690;9.132;2023-03-31T09:56:01;2.03;;;1.23;;
23060;SDS011;11698;47.690;9.132;2023-03-31T09:58:27;2.47;;;1.33;;
23060;SDS011;11698;47.690;9.132;2023-03-31T10:01:03;2.00;;;1.10;;
23060;SDS011;11698;47.690;9.132;2023-03-31T10:03:30;3.60;;;1.05;;
23060;SDS011;11698;47.690;9.132;2023-03-31T10:06:01;4.30;;;1.05;;
23060;SDS011;11698;47.690;9.132;2023-03-31T10:08:30;2.70;;;1.13;;
23060;SDS011;11698;47.690;9.132;2023-03-31T10:13:27;2.35;;;0.82;;
23060;SDS011;11698;47.690;9.132;2023-03-31T10:15:54;2.20;;;0.93;;
23060;SDS011;11698;47.690;9.132;2023-03-31T10:18:45;3.00;;;0.80;;
23060;SDS011;11698;47.690;9.132;2023-03-31T10:21:19;2.60;;;1.02;;
23060;SDS011;11698;47.690;9.132;2023-03-31T10:23:46;1.63;;;0.90;;
23060;SDS011;11698;47.690;9.132;2023-03-31T10:26:13;2.63;;;1.17;;
23060;SDS011;11698;47.690;9.132;2023-03-31T10:28:41;3.50;;;1.30;;
23060;SDS011;11698;47.690;9.132;2023-03-31T10:31:07;2.23;;;0.97;;
23060;SDS011;11698;47.690;9.132;2023-03-31T10:33:36;3.42;;;1.30;;
23060;SDS011;11698;47.690;9.132;2023-03-31T10:36:14;2.03;;;1.13;;
23060;SDS011;11698;47.690;9.132;2023-03-31T10:38:42;2.15;;;1.00;;
23060;SDS011;11698;47.690;9.132;2023-03-31T10:41:09;3.30;;;1.20;;
23060;SDS011;11698;47.690;9.132;2023-03-31T10:43:37;1.85;;;0.65;;
23060;SDS011;11698;47.690;9.132;2023-03-31T10:46:05;2.60;;;0.70;;
23060;SDS011;11698;47.690;9.132;2023-03-31T10:48:31;2.73;;;0.90;;
23060;SDS011;11698;47.690;9.132;2023-03-31T10:53:26;1.80;;;0.65;;
23060;SDS011;11698;47.690;9.132;2023-03-31T11:04:21;2.47;;;0.82;;
23060;SDS011;11698;47.690;9.132;2023-03-31T11:07:04;1.05;;;0.60;;
23060;SDS011;11698;47.690;9.132;2023-03-31T11:12:00;1.85;;;0.60;;
23060;SDS011;11698;47.690;9.132;2023-03-31T11:14:32;2.28;;;0.60;;
23060;SDS011;11698;47.690;9.132;2023-03-31T11:17:05;1.00;;;0.50;;
23060;SDS011;11698;47.690;9.132;2023-03-31T11:22:29;3.05;;;0.73;;
23060;SDS011;11698;47.690;9.132;2023-03-31T11:30:17;0.52;;;0.30;;
23060;SDS011;11698;47.690;9.132;2023-03-31T11:33:04;2.72;;;0.70;;
23060;SDS011;11698;47.690;9.132;2023-03-31T11:41:03;2.50;;;0.65;;
23060;SDS011;11698;47.690;9.132;2023-03-31T11:43:49;2.20;;;0.65;;
23060;SDS011;11698;47.690;9.132;2023-03-31T11:46:18;1.13;;;0.60;;
23060;SDS011;11698;47.690;9.132;2023-03-31T11:49:00;2.17;;;0.70;;
23060;SDS011;11698;47.690;9.132;2023-03-31T11:51:29;0.90;;;0.50;;
23060;SDS011;11698;47.690;9.132;2023-03-31T11:53:58;2.83;;;0.90;;
23060;SDS011;11698;47.690;9.132;2023-03-31T11:56:34;2.30;;;1.00;;
23060;SDS011;11698;47.690;9.132;2023-03-31T11:59:01;0.68;;;0.47;;
23060;SDS011;11698;47.690;9.132;2023-03-31T12:01:29;1.00;;;0.60;;
23060;SDS011;11698;47.690;9.132;2023-03-31T12:04:04;1.88;;;0.60;;
23060;SDS011;11698;47.690;9.132;2023-03-31T12:06:36;0.73;;;0.40;;
23060;SDS011;11698;47.690;9.132;2023-03-31T12:09:18;1.30;;;0.50;;
23060;SDS011;11698;47.690;9.132;2023-03-31T12:11:51;1.55;;;0.68;;
23060;SDS011;11698;47.690;9.132;2023-03-31T12:14:26;0.90;;;0.60;;
23060;SDS011;11698;47.690;9.132;2023-03-31T12:16:55;1.92;;;0.75;;
23060;SDS011;11698;47.690;9.132;2023-03-31T12:21:49;1.80;;;0.60;;
23060;SDS011;11698;47.690;9.132;2023-03-31T12:24:16;1.50;;;0.68;;
23060;SDS011;11698;47.690;9.132;2023-03-31T12:29:16;1.30;;;0.50;;
23060;SDS011;11698;47.690;9.132;2023-03-31T12:31:46;2.05;;;0.52;;
23060;SDS011;11698;47.690;9.132;2023-03-31T12:34:14;2.00;;;0.60;;
23060;SDS011;11698;47.690;9.132;2023-03-31T12:42:33;1.95;;;0.50;;
23060;SDS011;11698;47.690;9.132;2023-03-31T12:45:01;1.35;;;0.28;;
23060;SDS011;11698;47.690;9.132;2023-03-31T12:52:50;0.95;;;0.45;;
23060;SDS011;11698;47.690;9.132;2023-03-31T12:55:29;2.10;;;0.30;;
23060;SDS011;11698;47.690;9.132;2023-03-31T12:58:56;0.70;;;0.20;;
23060;SDS011;11698;47.690;9.132;2023-03-31T13:06:01;0.03;;;0.03;;
23060;SDS011;11698;47.690;9.132;2023-03-31T13:11:12;0.25;;;0.10;;
23060;SDS011;11698;47.690;9.132;2023-03-31T13:13:40;1.95;;;0.10;;
23060;SDS011;11698;47.690;9.132;2023-03-31T13:16:09;3.17;;;0.20;;
23060;SDS011;11698;47.690;9.132;2023-03-31T13:18:35;0.10;;;0.10;;
23060;SDS011;11698;47.690;9.132;2023-03-31T13:21:01;1.13;;;0.10;;
23060;SDS011;11698;47.690;9.132;2023-03-31T13:23:29;2.00;;;0.10;;
23060;SDS011;11698;47.690;9.132;2023-03-31T13:25:57;1.00;;;0.17;;
23060;SDS011;11698;47.690;9.132;2023-03-31T13:31:03;0.90;;;0.20;;
23060;SDS011;11698;47.690;9.132;2023-03-31T13:41:43;0.40;;;0.10;;
23060;SDS011;11698;47.690;9.132;2023-03-31T13:44:25;1.02;;;0.20;;
23060;SDS011;11698;47.690;9.132;2023-03-31T13:54:23;0.80;;;0.10;;
23060;SDS011;11698;47.690;9.132;2023-03-31T13:57:08;1.90;;;0.20;;
23060;SDS011;11698;47.690;9.132;2023-03-31T14:02:36;1.10;;;0.20;;
23060;SDS011;11698;47.690;9.132;2023-03-31T14:09:59;1.45;;;0.20;;
23060;SDS011;11698;47.690;9.132;2023-03-31T14:12:31;0.20;;;0.20;;
23060;SDS011;11698;47.690;9.132;2023-03-31T14:14:57;1.73;;;0.30;;
23060;SDS011;11698;47.690;9.132;2023-03-31T14:17:34;1.33;;;0.40;;
23060;SDS011;11698;47.690;9.132;2023-03-31T14:30:01;2.17;;;1.10;;
23060;SDS011;11698;47.690;9.132;2023-03-31T14:32:52;2.83;;;1.23;;
23060;SDS011;11698;47.690;9.132;2023-03-31T14:37:47;1.60;;;0.88;;
23060;SDS011;11698;47.690;9.132;2023-03-31T14:40:14;1.65;;;0.80;;
23060;SDS011;11698;47.690;9.132;2023-03-31T14:42:41;2.65;;;0.85;;
23060;SDS011;11698;47.690;9.132;2023-03-31T14:48:02;3.53;;;1.05;;
23060;SDS011;11698;47.690;9.132;2023-03-31T14:50:37;1.20;;;0.57;;
23060;SDS011;11698;47.690;9.132;2023-03-31T14:53:12;2.35;;;0.88;;
23060;SDS011;11698;47.690;9.132;2023-03-31T14:55:38;1.45;;;0.65;;
23060;SDS011;11698;47.690;9.132;2023-03-31T14:58:05;1.80;;;0.70;;
23060;SDS011;11698;47.690;9.132;2023-03-31T15:00:33;2.30;;;0.70;;
23060;SDS011;11698;47.690;9.132;2023-03-31T15:03:01;2.58;;;0.47;;
23060;SDS011;11698;47.690;9.132;2023-03-31T15:07:57;1.10;;;0.40;;
23060;SDS011;11698;47.690;9.132;2023-03-31T15:10:23;0.88;;;0.20;;
23060;SDS011;11698;47.690;9.132;2023-03-31T15:12:50;2.20;;;0.60;;
23060;SDS011;11698;47.690;9.132;2023-03-31T15:15:16;0.75;;;0.30;;
23060;SDS011;11698;47.690;9.132;2023-03-31T15:17:43;0.90;;;0.30;;
23060;SDS011;11698;47.690;9.132;2023-03-31T15:22:46;2.50;;;0.43;;
23060;SDS011;11698;47.690;9.132;2023-03-31T15:25:15;2.60;;;0.65;;
23060;SDS011;11698;47.690;9.132;2023-03-31T15:27:44;1.35;;;0.52;;
23060;SDS011;11698;47.690;9.132;2023-03-31T15:30:15;2.55;;;0.40;;
23060;SDS011;11698;47.690;9.132;2023-03-31T15:32:42;0.60;;;0.10;;
23060;SDS011;11698;47.690;9.132;2023-03-31T15:37:48;2.95;;;0.60;;
23060;SDS011;11698;47.690;9.132;2023-03-31T15:42:48;0.10;;;0.10;;
23060;SDS011;11698;47.690;9.132;2023-03-31T15:47:47;0.70;;;0.20;;
23060;SDS011;11698;47.690;9.132;2023-03-31T15:50:14;0.30;;;0.10;;
23060;SDS011;11698;47.690;9.132;2023-03-31T15:52:51;1.65;;;0.13;;
23060;SDS011;11698;47.690;9.132;2023-03-31T15:55:24;0.50;;;0.20;;
23060;SDS011;11698;47.690;9.132;2023-03-31T15:57:52;0.90;;;0.40;;
23060;SDS011;11698;47.690;9.132;2023-03-31T16:00:40;0.50;;;0.20;;
23060;SDS011;11698;47.690;9.132;2023-03-31T16:03:11;0.45;;;0.25;;
23060;SDS011;11698;47.690;9.132;2023-03-31T16:05:39;1.55;;;0.30;;
23060;SDS011;11698;47.690;9.132;2023-03-31T16:08:16;1.80;;;0.30;;
23060;SDS011;11698;47.690;9.132;2023-03-31T16:10:44;2.78;;;0.25;;
23060;SDS011;11698;47.690;9.132;2023-03-31T16:13:10;0.90;;;0.30;;
23060;SDS011;11698;47.690;9.132;2023-03-31T16:15:41;3.05;;;0.40;;
23060;SDS011;11698;47.690;9.132;2023-03-31T16:18:09;1.85;;;0.20;;
23060;SDS011;11698;47.690;9.132;2023-03-31T16:20:38;0.45;;;0.25;;
23060;SDS011;11698;47.690;9.132;2023-03-31T16:23:17;3.40;;;0.30;;
23060;SDS011;11698;47.690;9.132;2023-03-31T16:25:44;0.75;;;0.30;;
23060;SDS011;11698;47.690;9.132;2023-03-31T16:28:14;0.57;;;0.30;;
23060;SDS011;11698;47.690;9.132;2023-03-31T16:30:42;0.68;;;0.30;;
23060;SDS011;11698;47.690;9.132;2023-03-31T16:38:04;0.85;;;0.10;;
23060;SDS011;11698;47.690;9.132;2023-03-31T16:40:33;0.75;;;0.17;;
23060;SDS011;11698;47.690;9.132;2023-03-31T16:45:39;0.65;;;0.20;;
23060;SDS011;11698;47.690;9.132;2023-03-31T16:48:05;0.60;;;0.10;;
23060;SDS011;11698;47.690;9.132;2023-03-31T16:50:31;1.00;;;0.20;;
23060;SDS011;11698;47.690;9.132;2023-03-31T16:52:58;0.25;;;0.17;;
23060;SDS011;11698;47.690;9.132;2023-03-31T16:55:25;0.25;;;0.25;;
23060;SDS011;11698;47.690;9.132;2023-03-31T16:57:51;0.90;;;0.20;;
23060;SDS011;11698;47.690;9.132;2023-03-31T17:00:18;2.38;;;0.22;;
23060;SDS011;11698;47.690;9.132;2023-03-31T17:02:44;0.20;;;0.10;;
23060;SDS011;11698;47.690;9.132;2023-03-31T17:05:11;0.80;;;0.20;;
23060;SDS011;11698;47.690;9.132;2023-03-31T17:07:37;0.30;;;0.20;;
23060;SDS011;11698;47.690;9.132;2023-03-31T17:10:03;2.30;;;0.20;;
23060;SDS011;11698;47.690;9.132;2023-03-31T17:12:29;0.85;;;0.30;;
23060;SDS011;11698;47.690;9.132;2023-03-31T17:14:55;0.47;;;0.20;;
23060;SDS011;11698;47.690;9.132;2023-03-31T17:17:21;0.57;;;0.32;;
23060;SDS011;11698;47.690;9.132;2023-03-31T17:19:47;3.20;;;0.60;;
23060;SDS011;11698;47.690;9.132;2023-03-31T17:22:13;0.55;;;0.20;;
23060;SDS011;11698;47.690;9.132;2023-03-31T17:24:39;2.00;;;0.30;;
23060;SDS011;11698;47.690;9.132;2023-03-31T17:27:05;2.53;;;0.40;;
23060;SDS011;11698;47.690;9.132;2023-03-31T17:29:32;1.25;;;0.10;;
23060;SDS011;11698;47.690;9.132;2023-03-31T17:31:58;0.63;;;0.15;;
23060;SDS011;11698;47.690;9.132;2023-03-31T17:34:24;0.10;;;0.10;;
23060;SDS011;11698;47.690;9.132;2023-03-31T17:36:50;0.55;;;0.30;;
23060;SDS011;11698;47.690;9.132;2023-03-31T17:39:18;0.93;;;0.28;;
23060;SDS011;11698;47.690;9.132;2023-03-31T17:41:44;0.93;;;0.28;;
23060;SDS011;11698;47.690;9.132;2023-03-31T17:44:10;0.25;;;0.10;;
23060;SDS011;11698;47.690;9.132;2023-03-31T17:46:36;0.73;;;0.20;;
23060;SDS011;11698;47.690;9.132;2023-03-31T17:49:02;1.00;;;0.20;;
23060;SDS011;11698;47.690;9.132;2023-03-31T17:51:28;1.80;;;0.40;;
23060;SDS011;11698;47.690;9.132;2023-03-31T17:53:58;1.17;;;0.32;;
23060;SDS011;11698;47.690;9.132;2023-03-31T17:56:24;1.70;;;0.28;;
23060;SDS011;11698;47.690;9.132;2023-03-31T17:58:50;0.38;;;0.22;;
23060;SDS011;11698;47.690;9.132;2023-03-31T18:01:16;1.80;;;0.22;;
23060;SDS011;11698;47.690;9.132;2023-03-31T18:03:43;0.40;;;0.30;;
23060;SDS011;11698;47.690;9.132;2023-03-31T18:06:10;0.93;;;0.30;;
23060;SDS011;11698;47.690;9.132;2023-03-31T18:08:37;1.23;;;0.40;;
23060;SDS011;11698;47.690;9.132;2023-03-31T18:11:04;0.57;;;0.30;;